Austin, Texas
Traffic Map
Current Weather Conditions
Austin, Texas
Overcast
Overcast
24°
Feels Like: 24°
Wind Chill: 24° Ceiling: 700
Heat Index: 24° Visibility: 9mi
Dew Point: 23° Wind: 6mph
Humidity: 96% Direction: 100° (E)
Pressure: 29.99in Gusts: 0mph
Raw Report DataKATT 201411Z AUTO 10005KT 9SM BKN007 OVC012 24/23 A2999 RMK AO2 RAB1352E07 CIG 006V012 P0000 T02390233
Traffic Incident Summary
Active as of:
Severity:
Category:
InformationThere was an issue retrieving the traffic information for this location. Please try a different location or try again shortly.
Advertisements
Track Severe Weather on mobile